ADDS METAR Data INFO
IDs: Format: Raw Decoded Include TAF

Data at: 1213 UTC 22 Feb 2018

KATP 221155Z AUTO 13023KT 6SM HZ CLR 25/21 A3022 RMK A01
KATP 221135Z AUTO 13024KT 6SM HZ CLR 25/21 A3021 RMK A01
KATP 221115Z AUTO 13023KT 6SM HZ CLR 25/21 A3021 RMK A01
KATP 221055Z AUTO 13024KT 6SM HZ CLR 25/21 A3021 RMK A01
KATP 221035Z AUTO 13022KT 5SM HZ FEW018 FEW027 25/21 A3021 RMK A01
KATP 221015Z AUTO 13024KT 5SM HZ FEW018 SCT028 25/22 A3021 RMK A01
KATP 220955Z AUTO 14020KT 5SM HZ CLR 25/21 A3021 RMK A01
KATP 220935Z AUTO 13019KT 5SM HZ CLR 25/21 A3021 RMK A01
KATP 220915Z AUTO 13020KT 5SM HZ CLR 25/21 A3021 RMK A01
KATP 220855Z AUTO 14018G23KT 5SM HZ CLR 25/21 A3021 RMK A01
KATP 220835Z AUTO 14018KT 5SM HZ CLR 25/21 A3021 RMK A01
KATP 220815Z AUTO 14019G24KT 5SM HZ FEW020 25/22 A3021 RMK A01
KATP 220755Z AUTO 13021KT 5SM HZ SCT019 SCT025 25/22 A3021 RMK A01
KATP 220735Z AUTO 14018KT 6SM HZ FEW019 FEW025 25/22 A3022 RMK A01
KATP 220715Z AUTO 14019G26KT 5SM HZ CLR 25/21 A3023 RMK A01
KATP 220655Z AUTO 14018G24KT 5SM HZ CLR 25/22 A3023 RMK A01
KATP 220635Z AUTO 14018G25KT 5SM HZ CLR 25/22 A3023 RMK A01
KATP 220615Z AUTO 14019KT 5SM HZ FEW029 25/22 A3023 RMK A01
KATP 220555Z AUTO 14019KT 5SM HZ FEW021 FEW028 25/22 A3023 RMK A01
KATP 220535Z AUTO 14017G22KT 5SM HZ CLR 25/22 A3023 RMK A01
KATP 220515Z AUTO 14021KT 5SM HZ FEW019 FEW025 25/22 A3023 RMK A01
KATP 220455Z AUTO 14019G24KT 5SM HZ SCT018 SCT023 25/22 A3023 RMK A01
KATP 220435Z AUTO 14019KT 5SM HZ SCT017 SCT022 25/22 A3023 RMK A01
KATP 220415Z AUTO 14018G24KT 5SM HZ SCT019 25/22 A3023 RMK A01
KATP 220355Z AUTO 14021KT 4SM HZ FEW017 25/22 A3023 RMK A01
KATP 220035Z AUTO 14019G26KT 4SM HZ CLR 25/23 A3018 RMK A01
KATP 220015Z AUTO 14019G26KT 4SM HZ FEW015 25/23 A3017 RMK A01
KATP 212355Z AUTO 14021KT 4SM HZ SCT017 25/23 A3017 RMK A01
KATP 212335Z AUTO 14022G27KT 4SM HZ SCT016 26/23 A3017 RMK A01
KATP 212315Z AUTO 14022G28KT 4SM HZ FEW017 26/23 A3016 RMK A01
KATP 212255Z AUTO 14022KT 4SM HZ FEW017 26/23 A3015 RMK A01
KATP 212235Z AUTO 14021KT 5SM HZ FEW018 26/23 A3016 RMK A01
KATP 212215Z AUTO 14019G25KT 5SM HZ SCT018 SCT022 26/23 A3016 RMK A01
KATP 212155Z AUTO 14018G24KT 5SM HZ SCT018 SCT022 26/22 A3016 RMK A01
KATP 212135Z AUTO 15018KT 6SM HZ FEW018 FEW024 26/22 A3016 RMK A01
KATP 212115Z AUTO 14020KT 6SM HZ FEW017 26/23 A3016 RMK A01
KATP 212055Z AUTO 14021KT 6SM HZ CLR 26/22 A3016 RMK A01
KATP 212035Z AUTO 14021G27KT 6SM HZ FEW020 FEW028 26/22 A3016 RMK A01
KATP 212015Z AUTO 14019G30KT 5SM HZ SCT019 SCT024 SCT030 26/22 A3017 RMK A01
KATP 211955Z AUTO 14022G27KT 7SM FEW022 FEW027 26/22 A3018 RMK A01
KATP 211935Z AUTO 14021G26KT 6SM HZ FEW021 26/22 A3018 RMK A01
KATP 211915Z AUTO 14021G28KT 7SM FEW022 26/22 A3018 RMK A01
KATP 211855Z AUTO 14020G26KT 6SM HZ SCT020 26/22 A3019 RMK A01
KATP 211835Z AUTO 14022KT 7SM FEW019 26/22 A3019 RMK A01
KATP 211815Z AUTO 14021G27KT 6SM HZ FEW019 SCT025 SCT031 26/22 A3020 RMK A01
KATP 211755Z AUTO 14022G27KT 6SM HZ FEW022 FEW029 26/22 A3021 RMK A01
KATP 211735Z AUTO 14023G30KT 5SM HZ FEW019 26/22 A3021 RMK A01
KATP 211715Z AUTO 14024KT 5SM HZ SCT018 SCT025 26/23 A3021 RMK A01
KATP 211655Z AUTO 14022KT 6SM HZ SCT018 SCT023 26/22 A3022 RMK A01
KATP 211635Z AUTO 14021G28KT 5SM HZ FEW019 26/22 A3022 RMK A01
KATP 211615Z AUTO 13019G25KT 6SM HZ SCT020 SCT026 SCT032 26/23 A3023 RMK A01
KATP 211555Z AUTO 14022KT 6SM HZ SCT019 SCT025 26/22 A3023 RMK A01
KATP 211535Z AUTO 13021G29KT 6SM HZ SCT018 SCT023 26/22 A3022 RMK A01
KATP 211515Z AUTO 13021KT 6SM HZ BKN021 BKN028 26/22 A3022 RMK A01
KATP 211455Z AUTO 13022KT 6SM HZ SCT018 BKN025 26/22 A3021 RMK A01
KATP 211435Z AUTO 14018KT 6SM HZ FEW018 FEW025 26/22 A3021 RMK A01
KATP 211415Z AUTO 14018G25KT 6SM HZ FEW018 SCT026 26/22 A3020 RMK A01